sensor_id;sensor_type;location;lat;lon;timestamp;noise_LAeq;noise_LA_min;noise_LA_max;noise_LA01;noise_LA95
71805;Laerm;59654;52.216;5.616;2023-12-04T00:00:05;43.48;35.64;60.02;;
71805;Laerm;59654;52.216;5.616;2023-12-04T00:00:43;44.16;36.54;60.17;;
71805;Laerm;59654;52.216;5.616;2023-12-04T00:01:15;44.02;37.22;58.73;;
71805;Laerm;59654;52.216;5.616;2023-12-04T00:01:47;44.66;36.22;60.94;;
71805;Laerm;59654;52.216;5.616;2023-12-04T00:02:18;44.70;36.25;58.35;;
71805;Laerm;59654;52.216;5.616;2023-12-04T00:02:49;44.76;36.44;61.02;;
71805;Laerm;59654;52.216;5.616;2023-12-04T00:03:20;43.97;36.34;61.05;;
71805;Laerm;59654;52.216;5.616;2023-12-04T00:03:51;44.23;36.47;58.26;;
71805;Laerm;59654;52.216;5.616;2023-12-04T00:04:23;45.21;36.92;59.77;;
71805;Laerm;59654;52.216;5.616;2023-12-04T00:04:54;43.87;35.67;58.49;;
71805;Laerm;59654;52.216;5.616;2023-12-04T00:05:25;44.27;35.70;58.36;;
71805;Laerm;59654;52.216;5.616;2023-12-04T00:05:55;46.17;37.00;60.17;;
71805;Laerm;59654;52.216;5.616;2023-12-04T00:06:26;44.48;37.42;58.28;;
71805;Laerm;59654;52.216;5.616;2023-12-04T00:06:57;43.95;36.58;58.30;;
71805;Laerm;59654;52.216;5.616;2023-12-04T00:07:28;44.40;35.69;60.96;;
71805;Laerm;59654;52.216;5.616;2023-12-04T00:07:59;44.68;37.22;60.96;;
71805;Laerm;59654;52.216;5.616;2023-12-04T00:08:30;43.41;36.04;58.27;;
71805;Laerm;59654;52.216;5.616;2023-12-04T00:09:01;43.64;35.65;58.22;;
71805;Laerm;59654;52.216;5.616;2023-12-04T00:09:31;44.31;36.22;58.25;;
71805;Laerm;59654;52.216;5.616;2023-12-04T00:10:03;43.99;36.61;61.14;;
71805;Laerm;59654;52.216;5.616;2023-12-04T00:10:34;43.80;36.06;59.97;;
71805;Laerm;59654;52.216;5.616;2023-12-04T00:11:05;44.54;36.24;58.41;;
71805;Laerm;59654;52.216;5.616;2023-12-04T00:11:37;43.61;36.06;58.28;;
71805;Laerm;59654;52.216;5.616;2023-12-04T00:12:07;44.93;36.32;59.40;;
71805;Laerm;59654;52.216;5.616;2023-12-04T00:12:38;44.41;36.15;58.27;;
71805;Laerm;59654;52.216;5.616;2023-12-04T00:13:09;45.46;36.83;58.24;;
71805;Laerm;59654;52.216;5.616;2023-12-04T00:13:40;44.65;36.76;60.86;;
71805;Laerm;59654;52.216;5.616;2023-12-04T00:14:11;43.85;35.55;58.90;;
71805;Laerm;59654;52.216;5.616;2023-12-04T00:14:42;44.36;35.77;58.19;;
71805;Laerm;59654;52.216;5.616;2023-12-04T00:15:13;42.99;35.97;58.24;;
71805;Laerm;59654;52.216;5.616;2023-12-04T00:15:44;44.85;36.25;58.31;;
71805;Laerm;59654;52.216;5.616;2023-12-04T00:16:15;42.78;36.32;58.12;;
71805;Laerm;59654;52.216;5.616;2023-12-04T00:16:45;44.13;35.91;58.04;;
71805;Laerm;59654;52.216;5.616;2023-12-04T00:17:17;42.17;35.59;58.01;;
71805;Laerm;59654;52.216;5.616;2023-12-04T00:17:48;43.58;35.85;60.97;;
71805;Laerm;59654;52.216;5.616;2023-12-04T00:18:18;43.86;36.09;60.55;;
71805;Laerm;59654;52.216;5.616;2023-12-04T00:18:49;44.98;36.04;60.48;;
71805;Laerm;59654;52.216;5.616;2023-12-04T00:19:20;43.67;36.22;58.25;;
71805;Laerm;59654;52.216;5.616;2023-12-04T00:19:51;44.23;35.50;58.42;;
71805;Laerm;59654;52.216;5.616;2023-12-04T00:20:22;43.46;36.32;59.20;;
71805;Laerm;59654;52.216;5.616;2023-12-04T00:20:52;44.30;36.45;58.12;;
71805;Laerm;59654;52.216;5.616;2023-12-04T00:21:23;44.54;36.17;60.79;;
71805;Laerm;59654;52.216;5.616;2023-12-04T00:21:54;44.19;36.22;59.16;;
71805;Laerm;59654;52.216;5.616;2023-12-04T00:22:25;43.33;35.70;61.02;;
71805;Laerm;59654;52.216;5.616;2023-12-04T00:22:56;45.40;37.06;58.48;;
71805;Laerm;59654;52.216;5.616;2023-12-04T00:23:27;43.09;37.23;58.06;;
71805;Laerm;59654;52.216;5.616;2023-12-04T00:23:58;42.67;36.64;58.08;;
71805;Laerm;59654;52.216;5.616;2023-12-04T00:24:29;44.40;36.62;58.19;;
71805;Laerm;59654;52.216;5.616;2023-12-04T00:25:00;43.80;35.99;58.35;;
71805;Laerm;59654;52.216;5.616;2023-12-04T00:25:30;43.44;36.14;58.12;;
71805;Laerm;59654;52.216;5.616;2023-12-04T00:26:01;44.48;35.94;58.62;;
71805;Laerm;59654;52.216;5.616;2023-12-04T00:26:33;44.92;37.06;59.69;;
71805;Laerm;59654;52.216;5.616;2023-12-04T00:27:04;42.94;36.35;58.18;;
71805;Laerm;59654;52.216;5.616;2023-12-04T00:27:35;44.90;36.61;61.17;;
71805;Laerm;59654;52.216;5.616;2023-12-04T00:28:06;43.92;36.62;58.28;;
71805;Laerm;59654;52.216;5.616;2023-12-04T00:28:37;43.91;36.01;58.21;;
71805;Laerm;59654;52.216;5.616;2023-12-04T00:29:08;43.75;36.72;58.12;;
71805;Laerm;59654;52.216;5.616;2023-12-04T00:29:39;44.47;36.84;58.12;;
71805;Laerm;59654;52.216;5.616;2023-12-04T00:30:10;44.52;36.06;58.13;;
71805;Laerm;59654;52.216;5.616;2023-12-04T00:30:41;43.91;36.69;58.12;;
71805;Laerm;59654;52.216;5.616;2023-12-04T00:31:13;43.31;36.78;58.18;;
71805;Laerm;59654;52.216;5.616;2023-12-04T00:31:43;45.42;36.72;58.88;;
71805;Laerm;59654;52.216;5.616;2023-12-04T00:32:14;44.11;36.96;58.30;;
71805;Laerm;59654;52.216;5.616;2023-12-04T00:32:45;45.21;36.45;58.39;;
71805;Laerm;59654;52.216;5.616;2023-12-04T00:33:16;45.20;36.76;59.81;;
71805;Laerm;59654;52.216;5.616;2023-12-04T00:33:47;43.78;36.57;59.87;;
71805;Laerm;59654;52.216;5.616;2023-12-04T00:34:18;43.78;35.96;58.27;;
71805;Laerm;59654;52.216;5.616;2023-12-04T00:34:49;45.28;35.58;58.23;;
71805;Laerm;59654;52.216;5.616;2023-12-04T00:35:20;43.95;35.60;58.20;;
71805;Laerm;59654;52.216;5.616;2023-12-04T00:35:51;44.81;36.51;58.78;;
71805;Laerm;59654;52.216;5.616;2023-12-04T00:36:22;44.23;36.73;58.40;;
71805;Laerm;59654;52.216;5.616;2023-12-04T00:36:53;44.61;36.86;60.64;;
71805;Laerm;59654;52.216;5.616;2023-12-04T00:37:25;43.75;36.81;58.68;;
71805;Laerm;59654;52.216;5.616;2023-12-04T00:37:56;44.11;36.76;58.13;;
71805;Laerm;59654;52.216;5.616;2023-12-04T00:38:27;44.70;36.68;59.47;;
71805;Laerm;59654;52.216;5.616;2023-12-04T00:38:58;43.65;36.28;58.16;;
71805;Laerm;59654;52.216;5.616;2023-12-04T00:39:29;44.79;36.11;58.18;;
71805;Laerm;59654;52.216;5.616;2023-12-04T00:40:00;42.26;36.09;58.10;;
71805;Laerm;59654;52.216;5.616;2023-12-04T00:40:31;44.00;36.31;58.10;;
71805;Laerm;59654;52.216;5.616;2023-12-04T00:41:01;44.84;36.98;61.22;;
71805;Laerm;59654;52.216;5.616;2023-12-04T00:41:33;45.65;37.59;58.38;;
71805;Laerm;59654;52.216;5.616;2023-12-04T00:42:05;43.41;35.80;60.44;;
71805;Laerm;59654;52.216;5.616;2023-12-04T00:42:36;42.88;35.98;58.33;;
71805;Laerm;59654;52.216;5.616;2023-12-04T00:43:06;42.72;35.59;58.27;;
71805;Laerm;59654;52.216;5.616;2023-12-04T00:43:37;46.20;37.05;61.00;;
71805;Laerm;59654;52.216;5.616;2023-12-04T00:44:08;44.09;36.72;58.29;;
71805;Laerm;59654;52.216;5.616;2023-12-04T00:44:39;44.50;36.21;58.31;;
71805;Laerm;59654;52.216;5.616;2023-12-04T00:45:10;44.22;36.20;58.66;;
71805;Laerm;59654;52.216;5.616;2023-12-04T00:45:42;44.17;36.36;58.30;;
71805;Laerm;59654;52.216;5.616;2023-12-04T00:46:12;42.03;35.80;58.21;;
71805;Laerm;59654;52.216;5.616;2023-12-04T00:46:43;43.84;36.19;58.25;;
71805;Laerm;59654;52.216;5.616;2023-12-04T00:47:14;44.21;36.53;58.42;;
71805;Laerm;59654;52.216;5.616;2023-12-04T00:47:45;45.71;36.91;58.43;;
71805;Laerm;59654;52.216;5.616;2023-12-04T00:48:17;44.71;37.31;58.44;;
71805;Laerm;59654;52.216;5.616;2023-12-04T00:48:48;44.13;36.07;58.35;;
71805;Laerm;59654;52.216;5.616;2023-12-04T00:49:18;44.06;36.01;58.32;;
71805;Laerm;59654;52.216;5.616;2023-12-04T00:49:49;44.23;35.95;58.23;;
71805;Laerm;59654;52.216;5.616;2023-12-04T00:50:22;44.19;36.73;58.52;;
71805;Laerm;59654;52.216;5.616;2023-12-04T00:50:52;43.26;35.98;58.22;;
71805;Laerm;59654;52.216;5.616;2023-12-04T00:51:23;43.67;36.35;58.20;;
71805;Laerm;59654;52.216;5.616;2023-12-04T00:51:54;44.87;36.75;58.30;;
71805;Laerm;59654;52.216;5.616;2023-12-04T00:52:25;45.13;36.96;58.50;;
71805;Laerm;59654;52.216;5.616;2023-12-04T00:52:57;44.41;35.98;58.29;;
71805;Laerm;59654;52.216;5.616;2023-12-04T00:53:28;43.09;35.88;58.19;;
71805;Laerm;59654;52.216;5.616;2023-12-04T00:53:59;44.29;35.48;58.40;;
71805;Laerm;59654;52.216;5.616;2023-12-04T00:54:30;44.58;36.17;58.55;;
71805;Laerm;59654;52.216;5.616;2023-12-04T00:55:01;42.92;36.17;58.10;;
71805;Laerm;59654;52.216;5.616;2023-12-04T00:55:32;44.49;36.41;61.12;;
71805;Laerm;59654;52.216;5.616;2023-12-04T00:56:03;43.71;35.56;58.09;;
71805;Laerm;59654;52.216;5.616;2023-12-04T00:56:34;43.98;35.69;58.09;;
71805;Laerm;59654;52.216;5.616;2023-12-04T00:57:09;45.23;36.64;60.74;;
71805;Laerm;59654;52.216;5.616;2023-12-04T00:57:40;43.06;35.87;58.09;;
71805;Laerm;59654;52.216;5.616;2023-12-04T00:58:11;43.23;36.24;58.09;;
71805;Laerm;59654;52.216;5.616;2023-12-04T00:58:43;43.56;36.11;58.18;;
71805;Laerm;59654;52.216;5.616;2023-12-04T00:59:14;44.10;35.93;58.10;;
71805;Laerm;59654;52.216;5.616;2023-12-04T00:59:45;45.75;36.61;58.19;;
71805;Laerm;59654;52.216;5.616;2023-12-04T01:00:17;44.48;36.90;58.27;;
71805;Laerm;59654;52.216;5.616;2023-12-04T01:00:47;44.40;35.79;60.22;;
71805;Laerm;59654;52.216;5.616;2023-12-04T01:01:19;44.14;36.07;60.74;;
71805;Laerm;59654;52.216;5.616;2023-12-04T01:01:50;44.26;35.90;58.14;;
71805;Laerm;59654;52.216;5.616;2023-12-04T01:02:21;44.61;35.61;60.61;;
71805;Laerm;59654;52.216;5.616;2023-12-04T01:02:52;43.98;36.09;58.01;;
71805;Laerm;59654;52.216;5.616;2023-12-04T01:03:23;43.85;35.81;60.70;;
71805;Laerm;59654;52.216;5.616;2023-12-04T01:03:54;43.37;35.69;58.08;;
71805;Laerm;59654;52.216;5.616;2023-12-04T01:04:24;44.15;36.18;58.14;;
71805;Laerm;59654;52.216;5.616;2023-12-04T01:04:55;46.06;36.65;58.26;;
71805;Laerm;59654;52.216;5.616;2023-12-04T01:05:27;44.29;36.23;60.05;;
71805;Laerm;59654;52.216;5.616;2023-12-04T01:05:58;44.37;36.04;58.16;;
71805;Laerm;59654;52.216;5.616;2023-12-04T01:06:29;43.58;36.42;60.98;;
71805;Laerm;59654;52.216;5.616;2023-12-04T01:06:59;43.77;35.91;58.10;;
71805;Laerm;59654;52.216;5.616;2023-12-04T01:07:30;41.95;35.12;58.17;;
71805;Laerm;59654;52.216;5.616;2023-12-04T01:08:01;43.66;35.74;60.74;;
71805;Laerm;59654;52.216;5.616;2023-12-04T01:08:32;45.12;36.80;58.43;;
71805;Laerm;59654;52.216;5.616;2023-12-04T01:09:03;47.39;41.57;58.34;;
71805;Laerm;59654;52.216;5.616;2023-12-04T01:09:37;48.24;43.43;58.70;;
71805;Laerm;59654;52.216;5.616;2023-12-04T01:10:08;48.51;42.01;59.88;;
71805;Laerm;59654;52.216;5.616;2023-12-04T01:10:40;47.70;42.44;58.44;;
71805;Laerm;59654;52.216;5.616;2023-12-04T01:11:10;47.45;41.87;58.41;;
71805;Laerm;59654;52.216;5.616;2023-12-04T01:11:41;46.50;39.23;58.45;;
71805;Laerm;59654;52.216;5.616;2023-12-04T01:12:12;44.26;37.02;58.44;;
71805;Laerm;59654;52.216;5.616;2023-12-04T01:12:43;44.73;36.06;58.48;;
71805;Laerm;59654;52.216;5.616;2023-12-04T01:13:14;46.22;38.83;58.73;;
71805;Laerm;59654;52.216;5.616;2023-12-04T01:13:46;47.72;40.79;60.62;;
71805;Laerm;59654;52.216;5.616;2023-12-04T01:14:17;45.75;39.16;58.37;;
71805;Laerm;59654;52.216;5.616;2023-12-04T01:14:48;45.04;38.21;58.81;;
71805;Laerm;59654;52.216;5.616;2023-12-04T01:15:19;45.23;38.84;58.25;;
71805;Laerm;59654;52.216;5.616;2023-12-04T01:15:50;46.06;38.21;60.72;;
71805;Laerm;59654;52.216;5.616;2023-12-04T01:16:21;45.73;37.84;61.00;;
71805;Laerm;59654;52.216;5.616;2023-12-04T01:16:52;44.58;37.17;58.11;;
71805;Laerm;59654;52.216;5.616;2023-12-04T01:17:23;44.60;36.42;58.35;;
71805;Laerm;59654;52.216;5.616;2023-12-04T01:17:54;44.04;36.62;60.43;;
71805;Laerm;59654;52.216;5.616;2023-12-04T01:18:25;43.84;36.29;58.53;;
71805;Laerm;59654;52.216;5.616;2023-12-04T01:18:56;45.14;36.28;60.69;;
71805;Laerm;59654;52.216;5.616;2023-12-04T01:19:27;43.33;36.18;57.99;;
71805;Laerm;59654;52.216;5.616;2023-12-04T01:19:58;43.24;36.11;57.91;;
71805;Laerm;59654;52.216;5.616;2023-12-04T01:20:29;43.69;36.13;60.41;;
71805;Laerm;59654;52.216;5.616;2023-12-04T01:21:00;44.00;37.03;60.51;;
71805;Laerm;59654;52.216;5.616;2023-12-04T01:21:31;44.56;37.13;58.10;;
71805;Laerm;59654;52.216;5.616;2023-12-04T01:22:01;43.50;37.49;58.00;;
71805;Laerm;59654;52.216;5.616;2023-12-04T01:22:32;45.27;37.90;58.19;;
71805;Laerm;59654;52.216;5.616;2023-12-04T01:23:03;46.06;38.44;58.79;;
71805;Laerm;59654;52.216;5.616;2023-12-04T01:23:35;46.05;38.28;60.82;;
71805;Laerm;59654;52.216;5.616;2023-12-04T01:24:06;46.36;39.76;58.89;;
71805;Laerm;59654;52.216;5.616;2023-12-04T01:24:36;47.02;40.27;59.09;;
71805;Laerm;59654;52.216;5.616;2023-12-04T01:25:08;46.16;38.83;58.56;;
71805;Laerm;59654;52.216;5.616;2023-12-04T01:25:39;45.43;38.92;58.19;;
71805;Laerm;59654;52.216;5.616;2023-12-04T01:26:11;46.09;38.95;58.68;;
71805;Laerm;59654;52.216;5.616;2023-12-04T01:26:43;45.36;38.59;58.11;;
71805;Laerm;59654;52.216;5.616;2023-12-04T01:27:14;45.91;38.70;60.94;;
71805;Laerm;59654;52.216;5.616;2023-12-04T01:27:45;44.67;37.83;58.15;;
71805;Laerm;59654;52.216;5.616;2023-12-04T01:28:15;45.58;36.51;58.21;;
71805;Laerm;59654;52.216;5.616;2023-12-04T01:28:48;43.24;36.28;58.09;;
71805;Laerm;59654;52.216;5.616;2023-12-04T01:29:19;46.14;36.48;58.62;;
71805;Laerm;59654;52.216;5.616;2023-12-04T01:29:50;47.57;41.40;58.59;;
71805;Laerm;59654;52.216;5.616;2023-12-04T01:30:21;44.84;36.85;59.91;;
71805;Laerm;59654;52.216;5.616;2023-12-04T01:30:52;44.18;36.46;58.16;;
71805;Laerm;59654;52.216;5.616;2023-12-04T01:31:22;43.98;36.26;58.09;;
71805;Laerm;59654;52.216;5.616;2023-12-04T01:31:53;43.48;36.28;58.16;;
71805;Laerm;59654;52.216;5.616;2023-12-04T01:32:24;44.21;36.13;59.40;;
71805;Laerm;59654;52.216;5.616;2023-12-04T01:32:55;44.66;36.42;61.00;;
71805;Laerm;59654;52.216;5.616;2023-12-04T01:33:26;43.92;36.29;60.19;;
71805;Laerm;59654;52.216;5.616;2023-12-04T01:33:56;44.13;35.84;58.09;;
71805;Laerm;59654;52.216;5.616;2023-12-04T01:34:27;43.93;36.16;60.53;;
71805;Laerm;59654;52.216;5.616;2023-12-04T01:34:58;44.47;36.52;58.07;;
71805;Laerm;59654;52.216;5.616;2023-12-04T01:35:29;43.58;36.89;58.09;;
71805;Laerm;59654;52.216;5.616;2023-12-04T01:36:00;44.39;36.03;61.04;;
71805;Laerm;59654;52.216;5.616;2023-12-04T01:36:30;44.13;35.64;58.12;;
71805;Laerm;59654;52.216;5.616;2023-12-04T01:37:01;43.57;35.69;58.55;;
71805;Laerm;59654;52.216;5.616;2023-12-04T01:37:32;45.23;35.91;58.45;;
71805;Laerm;59654;52.216;5.616;2023-12-04T01:38:03;44.41;35.82;58.53;;
71805;Laerm;59654;52.216;5.616;2023-12-04T01:38:36;44.13;35.83;58.18;;
71805;Laerm;59654;52.216;5.616;2023-12-04T01:39:08;44.10;35.37;58.59;;
71805;Laerm;59654;52.216;5.616;2023-12-04T01:39:39;43.90;35.80;58.18;;
71805;Laerm;59654;52.216;5.616;2023-12-04T01:40:10;43.39;36.49;58.17;;
71805;Laerm;59654;52.216;5.616;2023-12-04T01:40:42;43.18;36.32;58.17;;
71805;Laerm;59654;52.216;5.616;2023-12-04T01:41:13;46.76;37.45;60.91;;
71805;Laerm;59654;52.216;5.616;2023-12-04T01:41:44;47.87;41.37;58.56;;
71805;Laerm;59654;52.216;5.616;2023-12-04T01:42:15;48.01;42.61;59.11;;
71805;Laerm;59654;52.216;5.616;2023-12-04T01:42:46;49.17;42.88;59.40;;
71805;Laerm;59654;52.216;5.616;2023-12-04T01:43:17;48.09;41.06;58.76;;
71805;Laerm;59654;52.216;5.616;2023-12-04T01:43:49;47.82;41.74;60.80;;
71805;Laerm;59654;52.216;5.616;2023-12-04T01:44:19;46.80;40.34;58.45;;
71805;Laerm;59654;52.216;5.616;2023-12-04T01:44:52;46.97;39.62;60.43;;
71805;Laerm;59654;52.216;5.616;2023-12-04T01:45:22;45.67;37.84;58.27;;
71805;Laerm;59654;52.216;5.616;2023-12-04T01:45:54;44.09;36.73;59.65;;
71805;Laerm;59654;52.216;5.616;2023-12-04T01:46:25;44.00;36.19;60.71;;
71805;Laerm;59654;52.216;5.616;2023-12-04T01:46:56;44.21;36.83;61.27;;
71805;Laerm;59654;52.216;5.616;2023-12-04T01:47:27;43.74;35.96;58.23;;
71805;Laerm;59654;52.216;5.616;2023-12-04T01:47:58;44.33;36.19;58.15;;
71805;Laerm;59654;52.216;5.616;2023-12-04T01:48:29;44.65;36.94;60.69;;
71805;Laerm;59654;52.216;5.616;2023-12-04T01:49:01;43.92;36.55;60.74;;
71805;Laerm;59654;52.216;5.616;2023-12-04T01:49:33;43.02;35.74;60.67;;
71805;Laerm;59654;52.216;5.616;2023-12-04T01:50:06;42.88;36.27;58.18;;
71805;Laerm;59654;52.216;5.616;2023-12-04T01:50:38;42.85;36.19;58.17;;
71805;Laerm;59654;52.216;5.616;2023-12-04T01:51:10;43.49;35.83;58.17;;
71805;Laerm;59654;52.216;5.616;2023-12-04T01:51:42;43.11;35.66;58.10;;
71805;Laerm;59654;52.216;5.616;2023-12-04T01:52:14;43.52;36.19;58.12;;
71805;Laerm;59654;52.216;5.616;2023-12-04T01:52:46;44.84;36.52;58.14;;
71805;Laerm;59654;52.216;5.616;2023-12-04T01:53:18;45.03;39.01;60.55;;
71805;Laerm;59654;52.216;5.616;2023-12-04T01:53:49;45.88;38.14;58.49;;
71805;Laerm;59654;52.216;5.616;2023-12-04T01:54:21;43.95;36.42;58.19;;
71805;Laerm;59654;52.216;5.616;2023-12-04T01:54:53;43.72;36.48;61.51;;
71805;Laerm;59654;52.216;5.616;2023-12-04T01:55:24;44.29;35.95;58.24;;
71805;Laerm;59654;52.216;5.616;2023-12-04T01:55:55;42.48;36.39;58.23;;
71805;Laerm;59654;52.216;5.616;2023-12-04T01:56:26;43.70;36.59;60.97;;
71805;Laerm;59654;52.216;5.616;2023-12-04T01:56:58;43.76;36.61;61.09;;
71805;Laerm;59654;52.216;5.616;2023-12-04T01:57:29;42.87;36.67;61.30;;
71805;Laerm;59654;52.216;5.616;2023-12-04T01:58:02;44.95;36.16;58.43;;
71805;Laerm;59654;52.216;5.616;2023-12-04T01:58:34;43.64;36.13;58.24;;
71805;Laerm;59654;52.216;5.616;2023-12-04T01:59:05;44.91;36.53;61.08;;
71805;Laerm;59654;52.216;5.616;2023-12-04T01:59:39;43.57;35.58;58.37;;
71805;Laerm;59654;52.216;5.616;2023-12-04T02:00:10;44.07;36.14;65.39;;
71805;Laerm;59654;52.216;5.616;2023-12-04T02:00:42;44.19;36.40;58.25;;
71805;Laerm;59654;52.216;5.616;2023-12-04T02:01:14;45.27;36.39;61.06;;
71805;Laerm;59654;52.216;5.616;2023-12-04T02:01:45;44.70;36.48;60.86;;
71805;Laerm;59654;52.216;5.616;2023-12-04T02:02:17;43.13;36.15;58.23;;
71805;Laerm;59654;52.216;5.616;2023-12-04T02:02:48;42.11;36.08;58.19;;
71805;Laerm;59654;52.216;5.616;2023-12-04T02:03:19;43.57;36.07;58.14;;
71805;Laerm;59654;52.216;5.616;2023-12-04T02:03:50;44.14;36.68;58.27;;
71805;Laerm;59654;52.216;5.616;2023-12-04T02:04:21;44.19;36.49;58.22;;
71805;Laerm;59654;52.216;5.616;2023-12-04T02:04:55;44.55;36.08;60.74;;
71805;Laerm;59654;52.216;5.616;2023-12-04T02:05:28;43.35;36.29;58.33;;
71805;Laerm;59654;52.216;5.616;2023-12-04T02:05:59;44.00;36.12;60.72;;
71805;Laerm;59654;52.216;5.616;2023-12-04T02:06:31;44.09;35.80;58.69;;
71805;Laerm;59654;52.216;5.616;2023-12-04T02:07:02;43.88;35.29;61.06;;
71805;Laerm;59654;52.216;5.616;2023-12-04T02:07:33;43.79;36.04;58.19;;
71805;Laerm;59654;52.216;5.616;2023-12-04T02:08:05;43.12;35.41;60.64;;
71805;Laerm;59654;52.216;5.616;2023-12-04T02:08:36;43.80;35.88;60.55;;
71805;Laerm;59654;52.216;5.616;2023-12-04T02:09:09;43.77;35.50;58.59;;
71805;Laerm;59654;52.216;5.616;2023-12-04T02:09:43;44.02;36.03;58.09;;
71805;Laerm;59654;52.216;5.616;2023-12-04T02:10:14;44.60;36.92;58.16;;
71805;Laerm;59654;52.216;5.616;2023-12-04T02:10:45;44.04;36.15;58.18;;
71805;Laerm;59654;52.216;5.616;2023-12-04T02:11:15;43.42;35.98;58.15;;
71805;Laerm;59654;52.216;5.616;2023-12-04T02:11:46;44.60;35.95;60.15;;
71805;Laerm;59654;52.216;5.616;2023-12-04T02:12:17;42.81;35.97;58.11;;
71805;Laerm;59654;52.216;5.616;2023-12-04T02:12:50;44.11;36.54;58.18;;
71805;Laerm;59654;52.216;5.616;2023-12-04T02:13:21;42.79;35.98;58.23;;
71805;Laerm;59654;52.216;5.616;2023-12-04T02:13:53;43.76;36.10;60.06;;
71805;Laerm;59654;52.216;5.616;2023-12-04T02:14:24;44.65;36.60;58.77;;
71805;Laerm;59654;52.216;5.616;2023-12-04T02:14:55;43.53;36.33;58.35;;
71805;Laerm;59654;52.216;5.616;2023-12-04T02:15:27;44.22;36.15;58.28;;
71805;Laerm;59654;52.216;5.616;2023-12-04T02:16:03;43.55;36.24;58.92;;
71805;Laerm;59654;52.216;5.616;2023-12-04T02:16:41;44.02;35.78;58.29;;
71805;Laerm;59654;52.216;5.616;2023-12-04T02:17:14;43.64;36.10;58.17;;
71805;Laerm;59654;52.216;5.616;2023-12-04T02:17:47;43.97;35.75;58.28;;
71805;Laerm;59654;52.216;5.616;2023-12-04T02:18:18;44.50;36.47;61.03;;
71805;Laerm;59654;52.216;5.616;2023-12-04T02:18:50;43.48;35.80;58.29;;
71805;Laerm;59654;52.216;5.616;2023-12-04T02:19:21;44.32;36.49;58.44;;
71805;Laerm;59654;52.216;5.616;2023-12-04T02:19:52;43.21;36.28;58.33;;
71805;Laerm;59654;52.216;5.616;2023-12-04T02:20:34;43.71;35.90;58.93;;
71805;Laerm;59654;52.216;5.616;2023-12-04T02:21:05;43.67;36.19;58.32;;
71805;Laerm;59654;52.216;5.616;2023-12-04T02:21:36;44.18;36.48;58.51;;
71805;Laerm;59654;52.216;5.616;2023-12-04T02:22:07;43.96;36.55;58.28;;
71805;Laerm;59654;52.216;5.616;2023-12-04T02:22:38;44.45;35.99;58.34;;
71805;Laerm;59654;52.216;5.616;2023-12-04T02:23:09;44.80;35.86;60.75;;
71805;Laerm;59654;52.216;5.616;2023-12-04T02:23:40;43.59;35.83;60.79;;
71805;Laerm;59654;52.216;5.616;2023-12-04T02:24:11;43.64;35.83;58.34;;
71805;Laerm;59654;52.216;5.616;2023-12-04T02:24:42;43.68;35.77;59.43;;
71805;Laerm;59654;52.216;5.616;2023-12-04T02:25:12;43.54;35.89;58.31;;
71805;Laerm;59654;52.216;5.616;2023-12-04T02:25:44;44.83;35.83;58.29;;
71805;Laerm;59654;52.216;5.616;2023-12-04T02:26:16;44.78;35.71;58.56;;
71805;Laerm;59654;52.216;5.616;2023-12-04T02:26:56;42.65;35.63;58.18;;
71805;Laerm;59654;52.216;5.616;2023-12-04T02:27:50;43.32;36.06;58.31;;
71805;Laerm;59654;52.216;5.616;2023-12-04T02:28:29;43.37;35.74;60.45;;
71805;Laerm;59654;52.216;5.616;2023-12-04T02:29:09;44.17;36.00;58.35;;
71805;Laerm;59654;52.216;5.616;2023-12-04T02:29:51;43.61;35.99;61.15;;
71805;Laerm;59654;52.216;5.616;2023-12-04T02:30:24;43.70;36.19;58.61;;
71805;Laerm;59654;52.216;5.616;2023-12-04T02:30:58;43.74;35.80;61.09;;
71805;Laerm;59654;52.216;5.616;2023-12-04T02:31:32;43.57;35.89;60.74;;
71805;Laerm;59654;52.216;5.616;2023-12-04T02:32:06;43.26;35.71;58.23;;
71805;Laerm;59654;52.216;5.616;2023-12-04T02:32:45;43.24;36.55;60.63;;
71805;Laerm;59654;52.216;5.616;2023-12-04T02:33:19;43.87;35.78;60.72;;
71805;Laerm;59654;52.216;5.616;2023-12-04T02:33:56;44.88;36.38;58.28;;
71805;Laerm;59654;52.216;5.616;2023-12-04T02:34:32;42.98;36.59;58.34;;
71805;Laerm;59654;52.216;5.616;2023-12-04T02:35:05;44.41;36.64;59.61;;
71805;Laerm;59654;52.216;5.616;2023-12-04T02:35:39;43.93;35.80;60.41;;
71805;Laerm;59654;52.216;5.616;2023-12-04T02:36:13;44.70;36.28;61.30;;
71805;Laerm;59654;52.216;5.616;2023-12-04T02:36:46;43.40;36.06;58.33;;
71805;Laerm;59654;52.216;5.616;2023-12-04T02:37:19;43.76;36.34;60.09;;
71805;Laerm;59654;52.216;5.616;2023-12-04T02:37:51;42.90;36.12;58.33;;
71805;Laerm;59654;52.216;5.616;2023-12-04T02:38:23;43.56;35.81;60.83;;
71805;Laerm;59654;52.216;5.616;2023-12-04T02:38:55;44.86;36.93;58.87;;
71805;Laerm;59654;52.216;5.616;2023-12-04T02:39:27;45.13;36.59;60.03;;
71805;Laerm;59654;52.216;5.616;2023-12-04T02:39:58;46.86;38.57;58.61;;
71805;Laerm;59654;52.216;5.616;2023-12-04T02:40:29;45.50;37.89;58.28;;
71805;Laerm;59654;52.216;5.616;2023-12-04T02:41:00;44.31;36.01;58.38;;
71805;Laerm;59654;52.216;5.616;2023-12-04T02:41:31;44.09;35.90;58.19;;
71805;Laerm;59654;52.216;5.616;2023-12-04T02:42:04;43.44;35.98;58.14;;
71805;Laerm;59654;52.216;5.616;2023-12-04T02:42:34;43.35;35.88;58.77;;
71805;Laerm;59654;52.216;5.616;2023-12-04T02:43:05;43.79;36.00;58.27;;
71805;Laerm;59654;52.216;5.616;2023-12-04T02:43:36;43.35;35.91;60.37;;
71805;Laerm;59654;52.216;5.616;2023-12-04T02:44:07;44.20;35.56;60.81;;
71805;Laerm;59654;52.216;5.616;2023-12-04T02:44:38;44.43;36.41;58.31;;
71805;Laerm;59654;52.216;5.616;2023-12-04T02:45:09;43.44;36.06;58.23;;
71805;Laerm;59654;52.216;5.616;2023-12-04T02:45:39;44.55;36.07;58.24;;
71805;Laerm;59654;52.216;5.616;2023-12-04T02:46:10;43.79;36.05;58.22;;
71805;Laerm;59654;52.216;5.616;2023-12-04T02:46:42;43.52;35.92;58.26;;
71805;Laerm;59654;52.216;5.616;2023-12-04T02:47:14;43.08;35.75;59.24;;
71805;Laerm;59654;52.216;5.616;2023-12-04T02:47:45;44.26;36.76;58.23;;
71805;Laerm;59654;52.216;5.616;2023-12-04T02:48:16;44.25;35.40;58.64;;
71805;Laerm;59654;52.216;5.616;2023-12-04T02:48:46;43.91;36.14;60.20;;
71805;Laerm;59654;52.216;5.616;2023-12-04T02:49:17;43.47;35.62;58.12;;
71805;Laerm;59654;52.216;5.616;2023-12-04T02:49:48;44.18;35.86;58.15;;
71805;Laerm;59654;52.216;5.616;2023-12-04T02:50:19;43.73;36.20;58.16;;
71805;Laerm;59654;52.216;5.616;2023-12-04T02:50:50;44.78;36.26;58.15;;
71805;Laerm;59654;52.216;5.616;2023-12-04T02:51:21;43.93;36.01;60.71;;
71805;Laerm;59654;52.216;5.616;2023-12-04T02:51:52;44.01;36.41;58.16;;
71805;Laerm;59654;52.216;5.616;2023-12-04T02:52:22;43.60;36.47;60.60;;
71805;Laerm;59654;52.216;5.616;2023-12-04T02:52:54;45.11;36.65;60.56;;
71805;Laerm;59654;52.216;5.616;2023-12-04T02:53:24;43.16;35.95;58.03;;
71805;Laerm;59654;52.216;5.616;2023-12-04T02:53:55;43.84;36.23;60.64;;
71805;Laerm;59654;52.216;5.616;2023-12-04T02:54:26;43.74;36.07;60.42;;
71805;Laerm;59654;52.216;5.616;2023-12-04T02:54:57;42.71;35.97;58.17;;
71805;Laerm;59654;52.216;5.616;2023-12-04T02:55:28;44.36;36.50;58.37;;
71805;Laerm;59654;52.216;5.616;2023-12-04T02:55:59;44.09;36.34;58.36;;
71805;Laerm;59654;52.216;5.616;2023-12-04T02:56:30;44.90;36.32;60.79;;